| time (UTC) | temp F | wind direction | speed knots | gust knots | rain 1hr in | rain 24hr in | rain mn in | humidity % | barometer mb |
| 20260505214154 | 91 | 306 | 0.0 | 1.7 | 0.00 | 0.00 | 0.00 | 55 | 1005.1 |
| 20260505213653 | 93 | 330 | 0.0 | 1.7 | 0.00 | 0.00 | 0.00 | 53 | 1005.2 |
| 20260505213153 | 93 | 330 | 0.0 | 1.7 | 0.00 | 0.00 | 0.00 | 53 | 1005.3 |
| 20260505212653 | 93 | 330 | 0.0 | 1.7 | 0.00 | 0.00 | 0.00 | 53 | 1005.4 |
| 20260505212153 | 93 | 330 | 0.0 | 1.7 | 0.00 | 0.00 | 0.00 | 53 | 1005.4 |
| 20260505211624 | 92 | 179 | 1.7 | 1.7 | 0.00 | 0.00 | 0.00 | 56 | 1005.4 |
| 20260505211124 | 92 | 179 | 1.7 | 5.2 | 0.00 | 0.00 | 0.00 | 56 | 1005.6 |
| 20260505210622 | 92 | 179 | 1.7 | 5.2 | 0.00 | 0.00 | 0.00 | 56 | 1005.4 |
| 20260505210122 | 93 | 87 | 0.9 | 4.3 | 0.00 | 0.00 | 0.00 | 52 | 1005.5 |
| 20260505205622 | 91 | 308 | 0.0 | 3.5 | 0.00 | 0.00 | 0.00 | 55 | 1005.6 |
| 20260505205122 | 91 | 74 | 0.9 | 3.5 | 0.00 | 0.00 | 0.00 | 56 | 1005.8 |
| 20260505204553 | 91 | 111 | 1.7 | 7.8 | 0.00 | 0.00 | 0.00 | 54 | 1005.6 |
| 20260505204052 | 91 | 9 | 2.6 | 7.8 | 0.00 | 0.00 | 0.00 | 55 | 1005.7 |
| 20260505203552 | 91 | 23 | 1.7 | 7.0 | 0.00 | 0.00 | 0.00 | 54 | 1006.0 |
| 20260505202551 | 91 | 346 | 2.6 | 4.3 | 0.00 | 0.00 | 0.00 | 56 | 1005.9 |
| 20260505202052 | 91 | 298 | 1.7 | 9.6 | 0.00 | 0.00 | 0.00 | 55 | 1006.1 |
| 20260505201551 | 91 | 263 | 1.7 | 9.6 | 0.00 | 0.00 | 0.00 | 55 | 1006.0 |
| 20260505201021 | 91 | 139 | 1.7 | 5.2 | 0.00 | 0.00 | 0.00 | 54 | 1006.1 |
| 20260505200521 | 90 | 344 | 1.7 | 9.6 | 0.00 | 0.00 | 0.00 | 57 | 1005.9 |
| 20260505200021 | 90 | 354 | 3.5 | 9.6 | 0.00 | 0.00 | 0.00 | 55 | 1006.1 |
| 20260505195020 | 90 | 157 | 1.7 | 5.2 | 0.00 | 0.00 | 0.00 | 55 | 1006.2 |
| 20260505194520 | 90 | 40 | 4.3 | 5.2 | 0.00 | 0.00 | 0.00 | 55 | 1006.3 |
| 20260505193949 | 90 | 122 | 1.7 | 4.3 | 0.00 | 0.00 | 0.00 | 57 | 1006.2 |
| 20260505193450 | 89 | 296 | 1.7 | 4.3 | 0.00 | 0.00 | 0.00 | 57 | 1006.1 |
| 20260505192950 | 90 | 285 | 1.7 | 4.3 | 0.00 | 0.00 | 0.00 | 58 | 1006.2 |
| 20260505192450 | 89 | 357 | 3.5 | 5.2 | 0.00 | 0.00 | 0.00 | 57 | 1006.2 |
| 20260505191949 | 89 | 10 | 3.5 | 5.2 | 0.00 | 0.00 | 0.00 | 58 | 1006.3 |
| 20260505190920 | 87 | 261 | 0.9 | 6.1 | 0.00 | 0.00 | 0.00 | 62 | 1006.2 |
| 20260505185919 | 88 | 51 | 1.7 | 2.6 | 0.00 | 0.00 | 0.00 | 62 | 1006.2 |
| 20260505185419 | 87 | 151 | 0.9 | 4.3 | 0.00 | 0.00 | 0.00 | 60 | 1006.4 |
| 20260505184918 | 86 | 318 | 1.7 | 4.3 | 0.00 | 0.00 | 0.00 | 62 | 1006.4 |
| 20260505184418 | 86 | 312 | 1.7 | 9.6 | 0.00 | 0.00 | 0.00 | 62 | 1006.6 |
| 20260505183348 | 85 | 340 | 1.7 | 3.5 | 0.00 | 0.00 | 0.00 | 63 | 1006.5 |
| 20260505182348 | 85 | 19 | 0.9 | 8.7 | 0.00 | 0.00 | 0.00 | 64 | 1006.5 |
| 20260505181848 | 85 | 284 | 0.9 | 5.2 | 0.00 | 0.00 | 0.00 | 63 | 1006.5 |
| 20260505180817 | 85 | 254 | 1.7 | 5.2 | 0.00 | 0.00 | 0.00 | 64 | 1006.5 |
| 20260505180316 | 85 | 325 | 0.9 | 7.8 | 0.00 | 0.00 | 0.00 | 64 | 1006.5 |
| 20260505175817 | 84 | 28 | 1.7 | 7.8 | 0.00 | 0.00 | 0.00 | 63 | 1006.4 |
| 20260505175316 | 86 | 39 | 0.0 | 7.0 | 0.00 | 0.00 | 0.00 | 62 | 1006.3 |
| 20260505174317 | 85 | 85 | 1.7 | 5.2 | 0.00 | 0.00 | 0.00 | 64 | 1006.6 |
| 20260505173816 | 85 | 149 | 0.0 | 5.2 | 0.00 | 0.00 | 0.00 | 64 | 1006.6 |
| 20260505173246 | 85 | 70 | 2.6 | 4.3 | 0.00 | 0.00 | 0.00 | 64 | 1006.6 |
| 20260505172746 | 84 | 354 | 0.0 | 4.3 | 0.00 | 0.00 | 0.00 | 65 | 1006.6 |
| 20260505172245 | 85 | 243 | 0.9 | 3.5 | 0.00 | 0.00 | 0.00 | 64 | 1006.7 |
| 20260505171746 | 84 | 10 | 1.7 | 3.5 | 0.00 | 0.00 | 0.00 | 65 | 1006.9 |
| 20260505171245 | 83 | 275 | 1.7 | 3.5 | 0.00 | 0.00 | 0.00 | 66 | 1006.5 |
| 20260505170746 | 83 | 162 | 0.9 | 9.6 | 0.00 | 0.00 | 0.00 | 68 | 1006.7 |
| 20260505170215 | 82 | 327 | 1.7 | 9.6 | 0.00 | 0.00 | 0.00 | 68 | 1006.6 |
| 20260505165715 | 83 | 211 | 0.9 | 4.3 | 0.00 | 0.00 | 0.00 | 65 | 1006.9 |
| 20260505165215 | 83 | 62 | 1.7 | 5.2 | 0.00 | 0.00 | 0.00 | 66 | 1006.5 |
| 20260505164715 | 82 | 134 | 2.6 | 5.2 | 0.00 | 0.00 | 0.00 | 67 | 1006.6 |
| 20260505164214 | 82 | 327 | 2.6 | 4.3 | 0.00 | 0.00 | 0.00 | 67 | 1006.5 |
| 20260505163715 | 81 | 186 | 0.9 | 5.2 | 0.00 | 0.00 | 0.00 | 68 | 1006.6 |
| 20260505163145 | 81 | 29 | 4.3 | 7.8 | 0.00 | 0.00 | 0.00 | 68 | 1006.5 |
| 20260505162143 | 81 | 336 | 0.0 | 4.3 | 0.00 | 0.00 | 0.00 | 68 | 1006.4 |
| 20260505161644 | 83 | 180 | 1.7 | 4.3 | 0.00 | 0.00 | 0.00 | 66 | 1006.5 |
| 20260505161143 | 82 | 180 | 1.7 | 4.3 | 0.00 | 0.00 | 0.00 | 67 | 1006.6 |
| 20260505160643 | 82 | 194 | 1.7 | 7.8 | 0.00 | 0.00 | 0.00 | 67 | 1006.3 |
| 20260505160114 | 82 | 286 | 1.7 | 7.8 | 0.00 | 0.00 | 0.00 | 67 | 1006.5 |
| 20260505153042 | 81 | 104 | 4.3 | 5.2 | 0.00 | 0.00 | 0.00 | 69 | 1006.4 |
| 20260505152542 | 81 | 127 | 1.7 | 5.2 | 0.00 | 0.00 | 0.00 | 69 | 1006.3 |
| 20260505152042 | 81 | 123 | 1.7 | 3.5 | 0.00 | 0.00 | 0.00 | 70 | 1006.5 |
| 20260505151542 | 80 | 204 | 1.7 | 3.5 | 0.00 | 0.00 | 0.00 | 71 | 1006.6 |
| 20260505151042 | 80 | 343 | 1.7 | 3.5 | 0.00 | 0.00 | 0.00 | 71 | 1006.5 |
| 20260505140440 | 75 | 353 | 1.7 | 3.5 | 0.00 | 0.00 | 0.00 | 80 | 1006.7 |
| 20260505124808 | 72 | 344 | 1.7 | 5.2 | 0.00 | 0.00 | 0.00 | 83 | 1006.1 |
| 20260505124307 | 72 | 182 | 1.7 | 3.5 | 0.00 | 0.00 | 0.00 | 83 | 1006.3 |
| 20260505123807 | 72 | 143 | 1.7 | 4.3 | 0.00 | 0.00 | 0.00 | 83 | 1005.9 |
| 20260505123307 | 72 | 2 | 1.7 | 5.2 | 0.00 | 0.00 | 0.00 | 83 | 1005.8 |
| 20260505122806 | 72 | 250 | 0.9 | 5.2 | 0.00 | 0.00 | 0.00 | 83 | 1005.7 |
| 20260505122307 | 72 | 122 | 1.7 | 3.5 | 0.00 | 0.00 | 0.00 | 83 | 1005.7 |
| 20260505121236 | 72 | 350 | 0.0 | 4.3 | 0.00 | 0.00 | 0.00 | 83 | 1005.7 |
| 20260505120736 | 72 | 121 | 1.7 | 6.1 | 0.00 | 0.00 | 0.00 | 83 | 1005.6 |
| 20260505120236 | 72 | 271 | 1.7 | 6.1 | 0.00 | 0.00 | 0.00 | 83 | 1005.7 |
| 20260505115736 | 72 | 45 | 1.7 | 3.5 | 0.00 | 0.00 | 0.00 | 83 | 1005.6 |
| 20260505115236 | 72 | 269 | 0.0 | 3.5 | 0.00 | 0.00 | 0.00 | 83 | 1005.8 |
| 20260505114705 | 72 | 215 | 1.7 | 4.3 | 0.00 | 0.00 | 0.00 | 83 | 1005.5 |
| 20260505114205 | 72 | 62 | 1.7 | 5.2 | 0.00 | 0.00 | 0.00 | 83 | 1005.6 |
| 20260505113204 | 72 | 159 | 1.7 | 4.3 | 0.00 | 0.00 | 0.00 | 83 | 1005.5 |
| 20260505112705 | 72 | 343 | 0.9 | 4.3 | 0.00 | 0.00 | 0.00 | 83 | 1005.4 |
| 20260505112205 | 71 | 92 | 1.7 | 3.5 | 0.00 | 0.00 | 0.00 | 84 | 1005.7 |
| 20260505111634 | 71 | 119 | 0.9 | 3.5 | 0.00 | 0.00 | 0.00 | 84 | 1005.6 |
| 20260505111135 | 71 | 106 | 0.9 | 3.5 | 0.00 | 0.00 | 0.00 | 84 | 1005.5 |
| 20260505110634 | 71 | 141 | 2.6 | 5.2 | 0.00 | 0.00 | 0.00 | 84 | 1005.5 |
| 20260505110134 | 71 | 103 | 1.7 | 5.2 | 0.00 | 0.00 | 0.00 | 84 | 1005.2 |
| 20260505102103 | 72 | 227 | 0.9 | 7.0 | 0.00 | 0.00 | 0.00 | 83 | 1005.5 |
| 20260505101533 | 72 | 32 | 1.7 | 3.5 | 0.00 | 0.00 | 0.00 | 83 | 1005.7 |
| 20260505101032 | 72 | 312 | 0.9 | 4.3 | 0.00 | 0.00 | 0.00 | 83 | 1005.6 |
| 20260505100533 | 72 | 99 | 0.0 | 4.3 | 0.00 | 0.00 | 0.00 | 83 | 1005.5 |
| 20260505100032 | 72 | 185 | 0.9 | 4.3 | 0.00 | 0.00 | 0.00 | 82 | 1005.6 |
| 20260505095532 | 72 | 309 | 0.9 | 3.5 | 0.00 | 0.00 | 0.00 | 82 | 1005.6 |
| 20260505095032 | 72 | 28 | 1.7 | 5.2 | 0.00 | 0.00 | 0.00 | 82 | 1005.6 |
| 20260505094532 | 72 | 154 | 0.0 | 5.2 | 0.00 | 0.00 | 0.00 | 82 | 1005.5 |
| 20260505094001 | 72 | 147 | 0.9 | 5.2 | 0.00 | 0.00 | 0.00 | 82 | 1005.8 |
| 20260505093502 | 72 | 41 | 3.5 | 9.6 | 0.00 | 0.00 | 0.00 | 82 | 1006.0 |
| 20260505092002 | 72 | 108 | 0.9 | 5.2 | 0.00 | 0.00 | 0.00 | 83 | 1005.8 |
| 20260505091501 | 72 | 353 | 0.9 | 5.2 | 0.00 | 0.00 | 0.00 | 83 | 1005.7 |
| 20260505090931 | 71 | 153 | 1.7 | 5.2 | 0.00 | 0.00 | 0.00 | 83 | 1006.0 |
| 20260505090430 | 71 | 129 | 2.6 | 5.2 | 0.00 | 0.00 | 0.00 | 83 | 1005.9 |
| 20260505085930 | 71 | 70 | 1.7 | 5.2 | 0.00 | 0.00 | 0.00 | 83 | 1006.1 |
| 20260505085430 | 71 | 38 | 1.7 | 5.2 | 0.00 | 0.00 | 0.00 | 83 | 1005.8 |
| 20260505084930 | 71 | 112 | 1.7 | 7.0 | 0.00 | 0.00 | 0.00 | 83 | 1005.9 |
| 20260505084430 | 71 | 125 | 2.6 | 7.0 | 0.00 | 0.00 | 0.00 | 83 | 1006.0 |
| 20260505083859 | 71 | 29 | 1.7 | 6.1 | 0.00 | 0.00 | 0.00 | 83 | 1006.0 |
| 20260505083400 | 71 | 133 | 0.0 | 5.2 | 0.00 | 0.00 | 0.00 | 83 | 1006.1 |
| 20260505082358 | 71 | 138 | 0.9 | 5.2 | 0.00 | 0.00 | 0.00 | 84 | 1005.8 |
| 20260505081859 | 71 | 101 | 0.0 | 4.3 | 0.00 | 0.00 | 0.00 | 83 | 1006.2 |
| 20260505081358 | 71 | 173 | 0.9 | 3.5 | 0.00 | 0.00 | 0.00 | 83 | 1006.0 |
| 20260505080828 | 71 | 92 | 1.7 | 4.3 | 0.00 | 0.00 | 0.00 | 83 | 1005.9 |
| 20260505075829 | 71 | 107 | 1.7 | 5.2 | 0.00 | 0.00 | 0.00 | 83 | 1006.1 |
| 20260505075328 | 71 | 78 | 2.6 | 5.2 | 0.00 | 0.00 | 0.00 | 82 | 1006.1 |
| 20260505074828 | 71 | 145 | 1.7 | 5.2 | 0.00 | 0.00 | 0.00 | 82 | 1006.3 |
| 20260505074328 | 71 | 115 | 0.9 | 3.5 | 0.00 | 0.00 | 0.00 | 82 | 1006.4 |
| 20260505073758 | 71 | 133 | 2.6 | 3.5 | 0.00 | 0.00 | 0.00 | 82 | 1006.5 |
| 20260505073258 | 71 | 349 | 1.7 | 3.5 | 0.00 | 0.00 | 0.00 | 81 | 1006.5 |
| 20260505072757 | 72 | 300 | 3.5 | 4.3 | 0.00 | 0.00 | 0.00 | 81 | 1006.6 |
| 20260505072257 | 72 | 107 | 1.7 | 4.3 | 0.00 | 0.00 | 0.00 | 81 | 1006.8 |
| 20260505071757 | 72 | 187 | 0.9 | 4.3 | 0.00 | 0.00 | 0.00 | 81 | 1006.8 |
| 20260505071256 | 72 | 108 | 1.7 | 5.2 | 0.00 | 0.00 | 0.00 | 80 | 1006.8 |
| 20260505070727 | 72 | 125 | 2.6 | 5.2 | 0.00 | 0.00 | 0.00 | 80 | 1007.0 |
| 20260505070226 | 72 | 89 | 0.0 | 4.3 | 0.00 | 0.00 | 0.00 | 80 | 1006.9 |
| 20260505065727 | 72 | 128 | 3.5 | 6.1 | 0.00 | 0.00 | 0.00 | 79 | 1006.8 |
| 20260505065226 | 72 | 72 | 2.6 | 6.1 | 0.00 | 0.00 | 0.00 | 79 | 1006.9 |
| 20260505064727 | 72 | 88 | 3.5 | 6.1 | 0.00 | 0.00 | 0.00 | 79 | 1007.1 |
| 20260505063656 | 73 | 128 | 3.5 | 3.5 | 0.00 | 0.00 | 0.00 | 78 | 1007.2 |
| 20260505063155 | 73 | 146 | 1.7 | 3.5 | 0.00 | 0.00 | 0.00 | 77 | 1007.2 |
| 20260505062655 | 73 | 108 | 2.6 | 4.3 | 0.00 | 0.00 | 0.00 | 77 | 1007.2 |
| 20260505062155 | 73 | 95 | 2.6 | 5.2 | 0.00 | 0.00 | 0.00 | 77 | 1007.3 |
| 20260505061656 | 73 | 12 | 1.7 | 5.2 | 0.00 | 0.00 | 0.00 | 77 | 1007.1 |
| 20260505061154 | 73 | 129 | 2.6 | 4.3 | 0.00 | 0.00 | 0.00 | 77 | 1007.2 |
| 20260505060625 | 73 | 117 | 2.6 | 7.8 | 0.00 | 0.00 | 0.00 | 76 | 1007.0 |
| 20260505055625 | 73 | 81 | 1.7 | 5.2 | 0.00 | 0.00 | 0.00 | 76 | 1007.1 |
| 20260505055124 | 73 | 191 | 0.0 | 6.1 | 0.00 | 0.00 | 0.00 | 75 | 1007.2 |
| 20260505054624 | 73 | 44 | 1.7 | 6.1 | 0.00 | 0.00 | 0.00 | 75 | 1007.3 |
| 20260505053624 | 73 | 167 | 1.7 | 7.0 | 0.00 | 0.00 | 0.00 | 75 | 1007.5 |
| 20260505053054 | 73 | 119 | 1.7 | 9.6 | 0.00 | 0.00 | 0.00 | 74 | 1007.3 |
| 20260505052554 | 73 | 105 | 2.6 | 9.6 | 0.00 | 0.00 | 0.00 | 74 | 1007.5 |
| 20260505052054 | 73 | 159 | 1.7 | 8.7 | 0.00 | 0.00 | 0.00 | 74 | 1007.4 |
| 20260505051053 | 73 | 34 | 3.5 | 3.5 | 0.00 | 0.00 | 0.00 | 74 | 1007.6 |
| 20260505050554 | 73 | 119 | 0.9 | 4.3 | 0.00 | 0.00 | 0.00 | 74 | 1007.5 |
| 20260505041452 | 74 | 143 | 0.9 | 4.3 | 0.00 | 0.00 | 0.00 | 71 | 1008.0 |
| 20260505040951 | 74 | 142 | 1.7 | 4.3 | 0.00 | 0.00 | 0.00 | 71 | 1007.8 |
| 20260505040451 | 74 | 100 | 1.7 | 4.3 | 0.00 | 0.00 | 0.00 | 71 | 1008.0 |
| 20260505035920 | 74 | 126 | 1.7 | 6.1 | 0.00 | 0.00 | 0.00 | 71 | 1007.9 |
| 20260505035420 | 74 | 345 | 0.9 | 6.1 | 0.00 | 0.00 | 0.00 | 71 | 1007.9 |
| 20260505034920 | 74 | 92 | 0.9 | 5.2 | 0.00 | 0.00 | 0.00 | 70 | 1007.8 |
| 20260505034421 | 74 | 87 | 1.7 | 5.2 | 0.00 | 0.00 | 0.00 | 70 | 1007.7 |
| 20260505033920 | 74 | 39 | 0.9 | 7.0 | 0.00 | 0.00 | 0.00 | 70 | 1007.6 |
| 20260505033420 | 75 | 19 | 1.7 | 7.0 | 0.00 | 0.00 | 0.00 | 70 | 1008.0 |
| 20260505032850 | 75 | 119 | 2.6 | 6.1 | 0.00 | 0.00 | 0.00 | 70 | 1008.0 |
| 20260505032350 | 75 | 146 | 3.5 | 6.1 | 0.00 | 0.00 | 0.00 | 70 | 1008.0 |
| 20260505031849 | 75 | 88 | 1.7 | 7.8 | 0.00 | 0.00 | 0.00 | 69 | 1008.0 |
| 20260505031350 | 75 | 108 | 2.6 | 7.8 | 0.00 | 0.00 | 0.00 | 69 | 1007.8 |
| 20260505030849 | 75 | 114 | 2.6 | 4.3 | 0.00 | 0.00 | 0.00 | 69 | 1008.0 |
| 20260505030349 | 75 | 126 | 1.7 | 4.3 | 0.00 | 0.00 | 0.00 | 69 | 1008.0 |
| 20260505025820 | 75 | 119 | 3.5 | 6.1 | 0.00 | 0.00 | 0.00 | 69 | 1007.8 |
| 20260505023818 | 75 | 103 | 0.0 | 5.2 | 0.00 | 0.00 | 0.00 | 68 | 1008.1 |
| 20260505022747 | 75 | 274 | 0.0 | 5.2 | 0.00 | 0.00 | 0.00 | 68 | 1007.6 |
| 20260505022248 | 75 | 116 | 0.0 | 7.0 | 0.00 | 0.00 | 0.00 | 68 | 1007.8 |
| 20260505021749 | 75 | 56 | 0.9 | 7.0 | 0.00 | 0.00 | 0.00 | 67 | 1007.7 |
| 20260505020748 | 75 | 346 | 1.7 | 5.2 | 0.00 | 0.00 | 0.00 | 67 | 1007.7 |
| 20260505020247 | 76 | 222 | 0.9 | 7.0 | 0.00 | 0.00 | 0.00 | 67 | 1007.6 |
| 20260505015747 | 76 | 216 | 1.7 | 7.0 | 0.00 | 0.00 | 0.00 | 67 | 1007.6 |
| 20260505015217 | 76 | 147 | 0.0 | 6.1 | 0.00 | 0.00 | 0.00 | 66 | 1007.7 |
| 20260505014717 | 76 | 134 | 3.5 | 5.2 | 0.00 | 0.00 | 0.00 | 66 | 1007.9 |
| 20260505013716 | 76 | 131 | 1.7 | 3.5 | 0.00 | 0.00 | 0.00 | 66 | 1007.7 |
| 20260505013216 | 76 | 99 | 1.7 | 3.5 | 0.00 | 0.00 | 0.00 | 66 | 1007.8 |
| 20260505012716 | 76 | 63 | 0.9 | 5.2 | 0.00 | 0.00 | 0.00 | 65 | 1007.6 |
| 20260505012146 | 77 | 83 | 0.9 | 5.2 | 0.00 | 0.00 | 0.00 | 65 | 1007.7 |
| 20260505011646 | 77 | 158 | 1.7 | 5.2 | 0.00 | 0.00 | 0.00 | 65 | 1007.6 |
| 20260505010647 | 77 | 80 | 1.7 | 9.6 | 0.00 | 0.00 | 0.00 | 64 | 1007.7 |
| 20260505010146 | 77 | 77 | 1.7 | 4.3 | 0.00 | 0.00 | 0.00 | 64 | 1007.4 |
| 20260505005645 | 77 | 104 | 4.3 | 7.8 | 0.00 | 0.00 | 0.00 | 64 | 1007.5 |
| 20260505004615 | 77 | 105 | 1.7 | 4.3 | 0.00 | 0.00 | 0.00 | 63 | 1007.5 |
| 20260505004115 | 77 | 117 | 2.6 | 6.1 | 0.00 | 0.00 | 0.00 | 63 | 1007.5 |
| 20260505003615 | 78 | 63 | 4.3 | 6.1 | 0.00 | 0.00 | 0.00 | 62 | 1007.7 |
| 20260505003114 | 78 | 103 | 2.6 | 5.2 | 0.00 | 0.00 | 0.00 | 62 | 1007.6 |
| 20260505002043 | 78 | 86 | 2.6 | 6.1 | 0.00 | 0.00 | 0.00 | 61 | 1007.8 |
| 20260505001044 | 79 | 219 | 1.7 | 5.2 | 0.00 | 0.00 | 0.00 | 60 | 1007.7 |
| 20260505000544 | 79 | 163 | 5.2 | 6.1 | 0.00 | 0.00 | 0.00 | 60 | 1007.9 |
| 20260505000044 | 79 | 267 | 1.7 | 9.6 | 0.00 | 0.00 | 0.00 | 60 | 1007.8 |
| 20260504235543 | 79 | 147 | 7.0 | 9.6 | 0.00 | 0.00 | 0.00 | 60 | 1007.9 |
| 20260504235014 | 80 | 247 | 3.5 | 5.2 | 0.00 | 0.00 | 0.00 | 59 | 1008.0 |
| 20260504234513 | 80 | 24 | 1.7 | 5.2 | 0.00 | 0.00 | 0.00 | 59 | 1008.0 |
| 20260504233513 | 80 | 74 | 0.9 | 5.2 | 0.00 | 0.00 | 0.00 | 58 | 1007.8 |
| 20260504232012 | 80 | 116 | 0.9 | 12.2 | 0.00 | 0.00 | 0.00 | 58 | 1008.0 |
| 20260504231442 | 80 | 234 | 1.7 | 7.8 | 0.00 | 0.00 | 0.00 | 58 | 1008.0 |
| 20260504230942 | 81 | 127 | 2.6 | 5.2 | 0.00 | 0.00 | 0.00 | 57 | 1008.4 |
| 20260504225941 | 82 | 46 | 1.7 | 10.4 | 0.00 | 0.00 | 0.00 | 56 | 1008.3 |
| 20260504225441 | 83 | 34 | 1.7 | 6.1 | 0.00 | 0.00 | 0.00 | 55 | 1008.2 |
| 20260504224941 | 83 | 121 | 3.5 | 7.0 | 0.00 | 0.00 | 0.00 | 55 | 1008.5 |
| 20260504224411 | 83 | 134 | 0.0 | 7.0 | 0.00 | 0.00 | 0.00 | 54 | 1008.4 |
| 20260504223911 | 82 | 115 | 3.5 | 5.2 | 0.00 | 0.00 | 0.00 | 55 | 1008.5 |
| 20260504223410 | 83 | 61 | 3.5 | 10.4 | 0.00 | 0.00 | 0.00 | 54 | 1008.5 |
| 20260504222910 | 83 | 106 | 2.6 | 10.4 | 0.00 | 0.00 | 0.00 | 54 | 1008.4 |
| 20260504222411 | 83 | 102 | 1.7 | 7.8 | 0.00 | 0.00 | 0.00 | 54 | 1008.3 |
| 20260504221911 | 82 | 1 | 1.7 | 7.0 | 0.00 | 0.00 | 0.00 | 54 | 1008.4 |
| 20260504221340 | 82 | 70 | 3.5 | 4.3 | 0.00 | 0.00 | 0.00 | 54 | 1008.4 |
| 20260504220840 | 82 | 103 | 2.6 | 5.2 | 0.00 | 0.00 | 0.00 | 55 | 1008.5 |
| 20260504220340 | 82 | 93 | 2.6 | 5.2 | 0.00 | 0.00 | 0.00 | 54 | 1008.6 |
| 20260504215840 | 83 | 35 | 2.6 | 11.3 | 0.00 | 0.00 | 0.00 | 53 | 1008.7 |
| 20260504215339 | 83 | 128 | 10.4 | 10.4 | 0.00 | 0.00 | 0.00 | 53 | 1008.6 |
| 20260504214839 | 84 | 110 | 3.5 | 7.8 | 0.00 | 0.00 | 0.00 | 53 | 1008.8 |
| 20260504214309 | 85 | 357 | 0.9 | 5.2 | 0.00 | 0.00 | 0.00 | 54 | 1008.8 |